Time;durP1;ratioP1;P1;durP2;ratioP2;P2;SDS_P1;SDS_P2;PMS_P1;PMS_P2;Temp;Humidity;BMP_temperature;BMP_pressure;BME280_temperature;BME280_humidity;BME280_pressure;Samples;Min_cycle;Max_cycle;Signal;HPM_P1;HPM_P2
2021/08/20 00:00:00;;;;;;;0.10;0.10;;;;;;;17.75;72.37;99322.72;6094183;23;20038;-75
2021/08/20 00:02:27;;;;;;;0.15;0.15;;;;;;;17.69;71.61;99318.06;6071432;23;20026;-77
2021/08/20 00:04:53;;;;;;;0.10;0.10;;;;;;;17.72;72.14;99328.59;6116470;23;20145;-75
2021/08/20 00:07:19;;;;;;;0.20;0.20;;;;;;;17.68;71.93;99321.88;6118132;23;20026;-77
2021/08/20 00:09:44;;;;;;;0.10;0.10;;;;;;;17.65;73.10;99328.56;6094413;23;20306;-75
2021/08/20 00:12:10;;;;;;;0.10;0.10;;;;;;;17.59;73.50;99335.72;6093349;23;20030;-76
2021/08/20 00:14:36;;;;;;;0.10;0.10;;;;;;;17.56;72.14;99336.13;6091789;23;20022;-76
2021/08/20 00:17:03;;;;;;;0.10;0.10;;;;;;;17.49;71.76;99334.41;6115059;23;20022;-76
2021/08/20 00:19:29;;;;;;;0.10;0.10;;;;;;;17.48;73.03;99339.03;6090685;23;20346;-76
2021/08/20 00:21:54;;;;;;;0.10;0.10;;;;;;;17.47;72.97;99348.25;6093612;23;20125;-76
2021/08/20 00:24:20;;;;;;;0.10;0.10;;;;;;;17.47;72.47;99347.44;6093114;23;20030;-76
2021/08/20 00:26:46;;;;;;;0.10;0.10;;;;;;;17.47;72.42;99353.72;6066600;23;20442;-76
2021/08/20 00:29:12;;;;;;;0.10;0.10;;;;;;;17.50;73.19;99342.41;6115113;23;20044;-78
2021/08/20 00:31:38;;;;;;;0.10;0.10;;;;;;;17.47;74.73;99351.00;6089209;23;20483;-76
2021/08/20 00:34:04;;;;;;;0.10;0.10;;;;;;;17.47;74.52;99348.25;6091702;23;20413;-76
2021/08/20 00:36:29;;;;;;;0.10;0.10;;;;;;;17.46;74.61;99352.06;6090778;23;20314;-75
2021/08/20 00:38:55;;;;;;;0.10;0.10;;;;;;;17.42;75.18;99349.94;6090022;23;20092;-76
2021/08/20 00:41:21;;;;;;;0.10;0.10;;;;;;;17.35;75.30;99349.91;6089865;23;20042;-75
2021/08/20 00:43:47;;;;;;;0.13;0.13;;;;;;;17.25;75.59;99358.47;6066179;23;20018;-76
2021/08/20 00:46:13;;;;;;;0.10;0.10;;;;;;;17.18;76.38;99351.28;6114004;23;20022;-76
2021/08/20 00:48:39;;;;;;;0.10;0.10;;;;;;;17.15;76.05;99355.28;6090772;23;20141;-76
2021/08/20 00:51:16;;;;;;;0.10;0.10;;;;;;;17.16;76.43;99345.19;6089978;23;20138;-75
2021/08/20 00:53:44;;;;;;;0.10;0.10;;;;;;;17.11;77.11;99343.91;6114464;23;20033;-76
2021/08/20 00:56:10;;;;;;;0.10;0.10;;;;;;;17.07;77.77;99348.06;6066229;23;20022;-75
2021/08/20 00:58:36;;;;;;;0.10;0.10;;;;;;;17.03;78.28;99344.03;6090316;23;20019;-77
2021/08/20 01:01:04;;;;;;;0.13;0.13;;;;;;;17.01;78.04;99346.16;6114500;23;20026;-77
2021/08/20 01:03:31;;;;;;;0.10;0.10;;;;;;;16.98;78.18;99342.97;6090251;23;20018;-78
2021/08/20 01:05:58;;;;;;;0.10;0.10;;;;;;;16.94;78.17;99355.34;6092831;23;20023;-77
2021/08/20 01:08:27;;;;;;;0.10;0.10;;;;;;;16.91;78.74;99372.94;6066171;23;20014;-75
2021/08/20 01:10:55;;;;;;;0.20;0.20;;;;;;;16.84;79.43;99374.78;6089987;23;20018;-75
2021/08/20 01:13:21;;;;;;;0.15;0.15;;;;;;;16.75;79.71;99381.47;6114243;23;20049;-75
2021/08/20 01:15:48;;;;;;;0.10;0.10;;;;;;;16.67;78.93;99385.13;6091700;23;20352;-76
2021/08/20 01:18:25;;;;;;;0.20;0.20;;;;;;;16.67;79.05;99365.16;6065813;23;20019;-76
2021/08/20 01:20:54;;;;;;;0.10;0.10;;;;;;;16.76;78.20;99356.69;6090492;23;20092;-74
2021/08/20 01:23:23;;;;;;;0.10;0.10;;;;;;;16.82;78.14;99361.34;6092377;23;20014;-76
2021/08/20 01:25:49;;;;;;;0.10;0.10;;;;;;;16.82;79.09;99365.97;6113956;23;20100;-75
2021/08/20 01:28:15;;;;;;;0.10;0.10;;;;;;;16.79;79.83;99380.00;6089859;23;20101;-74
2021/08/20 01:30:41;;;;;;;0.10;0.10;;;;;;;16.73;79.48;99378.03;6065613;23;20065;-76
2021/08/20 01:33:08;;;;;;;0.10;0.10;;;;;;;16.70;79.90;99382.00;6091088;23;20023;-76
2021/08/20 01:35:34;;;;;;;0.10;0.10;;;;;;;16.68;80.04;99377.78;6065726;23;20109;-76
2021/08/20 01:38:00;;;;;;;0.17;0.17;;;;;;;16.67;80.01;99385.13;6114504;23;20085;-76
2021/08/20 01:40:27;;;;;;;0.20;0.20;;;;;;;16.63;79.70;99384.66;6114396;23;20507;-74
2021/08/20 01:42:52;;;;;;;0.10;0.10;;;;;;;16.68;79.86;99385.97;6092170;23;20341;-75
2021/08/20 01:45:19;;;;;;;0.20;0.20;;;;;;;16.65;80.06;99381.75;6091819;23;20014;-78
2021/08/20 01:47:46;;;;;;;0.10;0.10;;;;;;;16.67;79.86;99379.66;6115971;23;20026;-74
2021/08/20 01:50:14;;;;;;;0.20;0.20;;;;;;;16.70;79.60;99372.97;6116172;23;20056;-78
2021/08/20 01:52:42;;;;;;;0.10;0.10;;;;;;;16.76;79.71;99377.69;6093241;23;20424;-74
2021/08/20 01:55:09;;;;;;;0.13;0.13;;;;;;;16.78;80.08;99381.03;6115757;23;20479;-74
2021/08/20 01:57:36;;;;;;;0.20;0.20;;;;;;;16.77;79.94;99385.66;6093452;23;20023;-75
2021/08/20 02:00:05;;;;;;;0.20;0.20;;;;;;;16.79;79.83;99393.66;6067322;23;20045;-76
2021/08/20 02:02:39;;;;;;;0.10;0.10;;;;;;;16.78;79.60;99387.38;6116543;23;20084;-76
2021/08/20 02:05:09;;;;;;;0.10;0.10;;;;;;;16.80;79.80;99389.88;6091985;23;20104;-78
2021/08/20 02:07:36;;;;;;;0.10;0.10;;;;;;;16.83;79.50;99394.94;6115876;23;20121;-76
2021/08/20 02:10:04;;;;;;;0.10;0.10;;;;;;;16.84;80.26;99380.25;6091580;23;20018;-75
2021/08/20 02:12:30;;;;;;;0.20;0.20;;;;;;;16.86;80.48;99386.38;6067785;23;20078;-77
2021/08/20 02:15:06;;;;;;;0.10;0.10;;;;;;;16.86;80.09;99383.63;6069718;23;20149;-77
2021/08/20 02:17:32;;;;;;;0.10;0.10;;;;;;;16.81;79.45;99380.66;6067578;23;20026;-75
2021/08/20 02:19:59;;;;;;;0.10;0.10;;;;;;;16.81;79.76;99376.03;6092195;23;20024;-76
2021/08/20 02:22:26;;;;;;;0.20;0.20;;;;;;;16.83;79.90;99378.56;6068731;23;20030;-78
2021/08/20 02:24:54;;;;;;;0.13;0.13;;;;;;;16.83;80.17;99384.03;6091612;23;20393;-77
2021/08/20 02:27:23;;;;;;;0.20;0.20;;;;;;;16.81;79.94;99375.19;6116530;23;20027;-75
2021/08/20 02:29:56;;;;;;;0.10;0.10;;;;;;;16.84;79.98;99369.31;6068558;23;20437;-76
2021/08/20 02:32:22;;;;;;;0.20;0.20;;;;;;;16.84;80.14;99375.63;6090927;23;20089;-76
2021/08/20 02:34:48;;;;;;;0.20;0.20;;;;;;;16.86;79.96;99372.72;6067151;23;20104;-76
2021/08/20 02:37:15;;;;;;;0.20;0.20;;;;;;;16.89;79.49;99377.75;6091460;23;20026;-76
2021/08/20 02:39:41;;;;;;;0.20;0.20;;;;;;;16.84;79.04;99369.31;6115371;23;20166;-75
2021/08/20 02:42:07;;;;;;;0.13;0.13;;;;;;;16.88;79.14;99376.06;6067199;23;20022;-77
2021/08/20 02:44:34;;;;;;;0.20;0.20;;;;;;;16.91;78.90;99375.69;6094186;23;20026;-75
2021/08/20 02:47:01;;;;;;;0.20;0.20;;;;;;;16.98;79.07;99382.03;6096436;23;20029;-78
2021/08/20 02:49:28;;;;;;;0.20;0.20;;;;;;;17.03;78.68;99374.06;6091875;23;20069;-75
2021/08/20 02:51:54;;;;;;;0.20;0.20;;;;;;;17.07;77.97;99369.91;6091259;23;20034;-75
2021/08/20 02:54:24;;;;;;;0.20;0.20;;;;;;;17.08;78.72;99377.06;6114474;23;20027;-77
2021/08/20 02:56:53;;;;;;;0.20;0.20;;;;;;;17.12;78.15;99377.53;6092183;23;20034;-77
2021/08/20 02:59:21;;;;;;;0.20;0.20;;;;;;;17.16;78.63;99377.97;6093767;23;20030;-77
2021/08/20 03:01:50;;;;;;;0.20;0.20;;;;;;;17.17;77.81;99368.72;6116694;23;20057;-79
2021/08/20 03:04:17;;;;;;;0.20;0.20;;;;;;;17.27;77.96;99369.19;6116369;23;20022;-77
2021/08/20 03:06:44;;;;;;;0.20;0.20;;;;;;;17.35;77.82;99382.69;6091432;23;20022;-78
2021/08/20 03:09:22;;;;;;;0.20;0.20;;;;;;;17.37;78.37;99386.09;6116654;23;20081;-75
2021/08/20 03:11:48;;;;;;;0.20;0.20;;;;;;;17.48;77.68;99385.50;6115972;23;20042;-75
2021/08/20 03:14:16;;;;;;;0.20;0.20;;;;;;;17.52;77.44;99388.69;6068356;23;20018;-76
2021/08/20 03:16:43;;;;;;;0.20;0.20;;;;;;;17.63;77.09;99390.84;6116901;23;20054;-74
2021/08/20 03:19:10;;;;;;;0.20;0.20;;;;;;;17.75;76.73;99382.88;6091710;23;20026;-79
2021/08/20 03:21:40;;;;;;;0.20;0.20;;;;;;;17.88;75.65;99382.09;6116609;23;20102;-76
2021/08/20 03:24:18;;;;;;;0.20;0.20;;;;;;;17.99;75.53;99378.78;5063965;28;20414;-81
2021/08/20 03:26:56;;;;;;;0.20;0.20;;;;;;;18.11;74.88;99387.25;5102555;27;20392;-78
2021/08/20 03:29:34;;;;;;;0.20;0.20;;;;;;;18.17;74.43;99370.00;5105033;27;20474;-77
2021/08/20 03:32:32;;;;;;;0.20;0.20;;;;;;;18.42;73.83;99379.28;5040460;28;20136;-76
2021/08/20 03:35:09;;;;;;;0.20;0.20;;;;;;;18.55;72.95;99384.78;5043050;28;20393;-77
2021/08/20 03:37:46;;;;;;;0.10;0.10;;;;;;;18.54;72.89;99388.59;5048434;28;20388;-78
2021/08/20 03:40:28;;;;;;;0.20;0.20;;;;;;;18.62;72.67;99394.91;5105611;27;20398;-75
2021/08/20 03:43:09;;;;;;;0.20;0.20;;;;;;;18.74;72.44;99398.72;5082079;28;20430;-77
2021/08/20 03:46:03;;;;;;;0.20;0.20;;;;;;;18.83;71.29;99392.00;5103021;27;20391;-76
2021/08/20 03:48:44;;;;;;;0.20;0.20;;;;;;;18.89;70.91;99401.25;5065048;28;20397;-78
2021/08/20 03:51:21;;;;;;;0.20;0.20;;;;;;;19.06;71.17;99401.69;5105418;27;20904;-76
2021/08/20 03:54:00;;;;;;;0.20;0.20;;;;;;;19.28;70.29;99409.44;5059703;28;20392;-78
2021/08/20 03:56:38;;;;;;;0.28;0.28;;;;;;;19.54;69.80;99404.09;5062582;28;20387;-77
2021/08/20 03:59:26;;;;;;;0.20;0.20;;;;;;;19.63;68.63;99408.31;5123941;27;20120;-79
2021/08/20 04:02:13;;;;;;;0.30;0.30;;;;;;;19.85;67.43;99409.72;5059986;28;20131;-77
2021/08/20 04:04:52;;;;;;;0.20;0.20;;;;;;;19.86;67.07;99405.94;5059868;27;20415;-78
2021/08/20 04:07:43;;;;;;;0.20;0.20;;;;;;;19.91;66.90;99408.00;5112493;27;20699;-76
2021/08/20 04:10:47;;;;;;;0.20;0.20;;;;;;;19.76;67.45;99408.28;5064002;28;20411;-80
2021/08/20 04:13:44;;;;;;;0.20;0.20;;;;;;;19.75;67.33;99403.88;5060797;28;20134;-78
2021/08/20 04:16:20;;;;;;;0.20;0.20;;;;;;;19.59;67.89;99401.56;5108376;27;20133;-79
2021/08/20 04:18:57;;;;;;;0.20;0.20;;;;;;;19.52;68.18;99412.53;5100441;27;20384;-77
2021/08/20 04:21:36;;;;;;;0.20;0.20;;;;;;;19.56;67.98;99402.81;5100591;27;20403;-79
2021/08/20 04:24:17;;;;;;;0.20;0.20;;;;;;;19.62;67.25;99406.59;5061587;28;20758;-77
2021/08/20 04:26:55;;;;;;;0.20;0.20;;;;;;;19.69;66.99;99407.47;5098421;27;20448;-78
2021/08/20 04:30:02;;;;;;;0.20;0.20;;;;;;;19.75;67.44;99406.59;5109056;27;20918;-79
2021/08/20 04:33:09;;;;;;;0.20;0.20;;;;;;;19.77;66.03;99409.97;5097121;27;20389;-79
2021/08/20 04:36:05;;;;;;;0.20;0.20;;;;;;;19.79;64.27;99413.34;5063132;28;20383;-78
2021/08/20 04:39:01;;;;;;;0.20;0.20;;;;;;;19.80;63.82;99400.47;5099826;27;20389;-79
2021/08/20 04:42:05;;;;;;;0.20;0.20;;;;;;;19.91;64.10;99397.88;5067211;27;20379;-82
2021/08/20 04:44:53;;;;;;;0.20;0.20;;;;;;;20.01;63.89;99396.56;5097937;27;20171;-78
2021/08/20 04:47:50;;;;;;;0.20;0.20;;;;;;;20.15;62.53;99395.44;5104673;27;20880;-78
2021/08/20 04:51:04;;;;;;;0.20;0.20;;;;;;;20.23;61.97;99397.94;5106982;27;20915;-80
2021/08/20 04:54:01;;;;;;;0.20;0.20;;;;;;;20.34;61.63;99402.72;5111414;27;20919;-81
2021/08/20 04:57:36;;;;;;;0.20;0.20;;;;;;;20.39;61.15;99402.03;5097705;27;20378;-81
2021/08/20 05:00:28;;;;;;;0.20;0.20;;;;;;;20.49;61.60;99399.66;5105397;27;20905;-81
2021/08/20 05:03:26;;;;;;;0.20;0.20;;;;;;;20.56;62.49;99394.16;5137897;27;20455;-79
2021/08/20 05:06:21;;;;;;;0.20;0.20;;;;;;;20.71;61.04;99394.66;5126764;27;20476;-84
2021/08/20 05:09:16;;;;;;;0.20;0.20;;;;;;;21.00;60.25;99393.16;5177359;27;20429;-79
2021/08/20 05:12:16;;;;;;;0.20;0.20;;;;;;;21.11;60.15;99394.31;5111026;27;20394;-80
2021/08/20 05:15:19;;;;;;;0.20;0.20;;;;;;;21.25;59.50;99401.38;5128152;27;20376;-81
2021/08/20 05:18:20;;;;;;;0.20;0.20;;;;;;;21.34;59.19;99399.19;5125739;27;20408;-79
2021/08/20 05:21:27;;;;;;;0.20;0.20;;;;;;;21.40;58.21;99403.78;5123444;27;20395;-79
2021/08/20 05:24:19;;;;;;;0.20;0.20;;;;;;;21.51;58.00;99388.44;5078505;27;20397;-81
2021/08/20 05:27:14;;;;;;;0.30;0.30;;;;;;;22.12;56.14;99395.69;5141279;27;20153;-81
2021/08/20 05:30:06;;;;;;;0.55;0.55;;;;;;;23.06;53.89;99398.78;5086277;27;20934;-81
2021/08/20 05:32:44;;;;;;;0.55;0.55;;;;;;;23.99;51.35;99391.50;5107932;27;20357;-79
2021/08/20 05:35:22;;;;;;;0.60;0.60;;;;;;;24.66;49.77;99391.69;5129677;27;20133;-82
2021/08/20 05:38:02;;;;;;;0.50;0.50;;;;;;;25.31;48.26;99392.22;5087870;27;20360;-80
2021/08/20 05:40:39;;;;;;;0.50;0.50;;;;;;;25.70;45.67;99393.84;5087257;27;20403;-78
2021/08/20 05:43:16;;;;;;;0.50;0.50;;;;;;;26.10;45.87;99391.88;5066973;27;20748;-79
2021/08/20 05:45:54;;;;;;;0.45;0.45;;;;;;;26.14;44.39;99393.03;5051410;27;20397;-84
2021/08/20 05:48:32;;;;;;;0.40;0.40;;;;;;;26.12;44.82;99396.06;5119636;27;20390;-79
2021/08/20 05:51:11;;;;;;;0.30;0.30;;;;;;;26.21;44.92;99394.50;5107310;27;20408;-80
2021/08/20 05:53:49;;;;;;;0.50;0.50;;;;;;;26.68;43.01;99402.22;5082920;27;20393;-81
2021/08/20 05:56:27;;;;;;;0.50;0.50;;;;;;;27.00;43.23;99401.41;5108485;27;20384;-83
2021/08/20 05:59:05;;;;;;;0.50;0.50;;;;;;;27.45;41.39;99396.47;5085304;27;20473;-80
2021/08/20 06:01:44;;;;;;;0.60;0.60;;;;;;;27.99;40.61;99408.19;5083486;27;20415;-80
2021/08/20 06:04:23;;;;;;;0.55;0.55;;;;;;;28.39;39.30;99406.66;5085994;27;20393;-80
2021/08/20 06:07:02;;;;;;;0.50;0.50;;;;;;;28.81;38.72;99406.47;5044714;28;20935;-79
2021/08/20 06:09:43;;;;;;;0.50;0.50;;;;;;;29.10;38.20;99405.09;5081276;27;20380;-80
2021/08/20 06:12:21;;;;;;;0.52;0.52;;;;;;;29.50;37.09;99409.78;5077030;27;20788;-81
2021/08/20 06:14:58;;;;;;;0.57;0.57;;;;;;;29.59;36.56;99408.13;5078598;27;20387;-83
2021/08/20 06:17:36;;;;;;;0.60;0.60;;;;;;;29.56;36.46;99409.47;5095511;27;20863;-82
2021/08/20 06:20:15;;;;;;;0.60;0.60;;;;;;;29.92;35.45;99398.25;5045549;28;20758;-79
2021/08/20 06:22:53;;;;;;;0.60;0.60;;;;;;;30.15;33.70;99398.72;5095693;27;20399;-82
2021/08/20 06:25:30;;;;;;;0.70;0.70;;;;;;;30.69;33.61;99386.69;5085458;27;20382;-79
2021/08/20 06:28:09;;;;;;;0.60;0.60;;;;;;;30.84;33.10;99399.72;5118890;27;20724;-82
2021/08/20 06:30:49;;;;;;;0.70;0.70;;;;;;;30.93;32.69;99392.38;5059761;28;20410;-84
2021/08/20 06:33:28;;;;;;;0.60;0.60;;;;;;;30.92;31.69;99391.56;5132824;27;21099;-80
2021/08/20 06:36:07;;;;;;;0.60;0.60;;;;;;;31.43;30.68;99395.88;5053327;28;20421;-80
2021/08/20 06:38:45;;;;;;;0.70;0.70;;;;;;;31.27;31.17;99397.97;5091592;27;20156;-82
2021/08/20 06:41:24;;;;;;;0.60;0.60;;;;;;;31.54;30.15;99399.38;5131237;27;20188;-79
2021/08/20 06:44:03;;;;;;;0.70;0.70;;;;;;;31.63;29.53;99392.00;5085992;27;20384;-84
2021/08/20 06:46:44;;;;;;;0.60;0.60;;;;;;;31.96;29.68;99392.22;5062772;28;20380;-80
2021/08/20 06:49:22;;;;;;;0.70;0.70;;;;;;;32.10;28.92;99391.19;5066268;27;20394;-80
2021/08/20 06:52:01;;;;;;;0.70;0.70;;;;;;;32.59;28.97;99389.13;5061421;27;20459;-79
2021/08/20 06:54:39;;;;;;;0.70;0.70;;;;;;;32.59;28.38;99384.38;5096952;27;20137;-80
2021/08/20 06:57:18;;;;;;;0.68;0.68;;;;;;;32.67;29.00;99380.03;5114476;27;20124;-82
2021/08/20 06:59:57;;;;;;;0.70;0.70;;;;;;;33.01;27.76;99384.56;5064408;27;20423;-81
2021/08/20 07:02:43;;;;;;;0.70;0.70;;;;;;;33.53;27.04;99385.31;5113010;27;20203;-82
2021/08/20 07:05:21;;;;;;;0.68;0.68;;;;;;;33.01;28.28;99382.59;5094027;27;20925;-80
2021/08/20 07:07:59;;;;;;;0.70;0.70;;;;;;;33.27;29.04;99382.97;5107917;27;20394;-79
2021/08/20 07:10:37;;;;;;;0.77;0.77;;;;;;;33.86;27.52;99388.88;5073168;27;20402;-80
2021/08/20 07:13:16;;;;;;;0.70;0.70;;;;;;;34.07;27.24;99383.69;5045992;28;20388;-80
2021/08/20 07:15:57;;;;;;;0.70;0.70;;;;;;;33.98;27.83;99379.94;5058118;28;20411;-79
2021/08/20 07:18:36;;;;;;;0.73;0.73;;;;;;;34.44;26.48;99378.94;5101237;27;20378;-81
2021/08/20 07:21:14;;;;;;;0.70;0.70;;;;;;;34.79;26.87;99377.28;5090632;27;20387;-79
2021/08/20 07:23:53;;;;;;;0.80;0.80;;;;;;;35.01;26.51;99368.88;5073486;27;20442;-80
2021/08/20 07:26:31;;;;;;;0.70;0.70;;;;;;;34.89;26.29;99381.84;5087128;27;20397;-80
2021/08/20 07:29:10;;;;;;;0.80;0.80;;;;;;;35.23;25.99;99382.06;5058576;28;20395;-80
2021/08/20 07:31:46;;;;;;;0.80;0.80;;;;;;;34.92;26.33;99375.56;5041552;28;20902;-81
2021/08/20 07:34:25;;;;;;;0.80;0.80;;;;;;;35.59;25.81;99369.91;5070837;27;20405;-79
2021/08/20 07:37:04;;;;;;;0.60;0.60;;;;;;;35.88;24.44;99376.94;5150024;27;20405;-81
2021/08/20 07:39:42;;;;;;;0.70;0.70;;;;;;;34.90;25.79;99377.88;5090719;27;20381;-83
2021/08/20 07:42:21;;;;;;;0.75;0.75;;;;;;;34.80;26.42;99374.16;5091915;27;20398;-81
2021/08/20 07:45:00;;;;;;;0.80;0.80;;;;;;;34.93;25.84;99371.63;5052844;27;20479;-79
2021/08/20 07:47:45;;;;;;;0.80;0.80;;;;;;;35.44;26.04;99375.91;5033646;28;20440;-79
2021/08/20 07:50:24;;;;;;;0.70;0.70;;;;;;;35.77;24.28;99381.22;5036007;27;20416;-83
2021/08/20 07:53:02;;;;;;;0.80;0.80;;;;;;;36.22;24.16;99374.25;5092751;27;20404;-80
2021/08/20 07:55:40;;;;;;;0.70;0.70;;;;;;;36.51;23.89;99370.00;5039675;28;20484;-81
2021/08/20 07:58:19;;;;;;;0.70;0.70;;;;;;;36.68;24.05;99370.00;5088704;27;20194;-80
2021/08/20 08:00:57;;;;;;;0.82;0.82;;;;;;;36.57;24.66;99362.22;5089586;27;20493;-81
2021/08/20 08:03:57;;;;;;;0.90;0.90;;;;;;;36.45;22.98;99371.28;5091240;27;20388;-81
2021/08/20 08:10:48;;;;;;;0.90;0.90;;;;;;;37.26;22.50;99364.13;4950780;23;20083;-80
2021/08/20 08:13:39;;;;;;;0.73;0.73;;;;;;;37.27;22.79;99368.63;5077280;27;20399;-80
2021/08/20 08:16:38;;;;;;;0.80;0.80;;;;;;;37.08;22.52;99372.66;5116937;27;20354;-81
2021/08/20 08:19:34;;;;;;;0.90;0.90;;;;;;;37.58;22.31;99374.00;5070636;27;22066;-81
2021/08/20 08:22:32;;;;;;;0.80;0.80;;;;;;;37.74;20.49;99360.19;5100060;27;20403;-80
2021/08/20 08:25:42;;;;;;;0.77;0.77;;;;;;;37.56;20.59;99367.88;5118142;27;21006;-80
2021/08/20 08:28:37;;;;;;;0.80;0.80;;;;;;;37.51;21.09;99368.88;5175679;27;20929;-81
2021/08/20 08:31:27;;;;;;;0.90;0.90;;;;;;;37.88;20.33;99369.19;5055455;27;20393;-80
2021/08/20 08:34:34;;;;;;;0.85;0.85;;;;;;;38.47;20.19;99372.06;5123387;27;20859;-83
2021/08/20 08:37:24;;;;;;;0.90;0.90;;;;;;;38.86;19.64;99369.91;5087212;27;20742;-81
2021/08/20 08:40:36;;;;;;;0.90;0.90;;;;;;;39.20;18.61;99359.41;5101937;27;20907;-82
2021/08/20 08:43:27;;;;;;;0.82;0.82;;;;;;;39.31;19.05;99363.50;5080939;27;20409;-80
2021/08/20 08:46:22;;;;;;;0.80;0.80;;;;;;;39.44;18.93;99358.69;5114252;27;20810;-81
2021/08/20 08:48:59;;;;;;;0.80;0.80;;;;;;;39.28;18.68;99369.84;5100453;27;20793;-82
2021/08/20 08:51:38;;;;;;;0.90;0.90;;;;;;;38.82;18.32;99366.94;5039836;28;20844;-79
2021/08/20 08:54:04;;;;;;;0.70;0.70;;;;;;;38.69;19.57;99378.50;5024890;28;20052;-80
2021/08/20 08:56:47;;;;;;;0.85;0.85;;;;;;;39.06;19.17;99371.88;5062915;27;20354;-81
2021/08/20 08:59:32;;;;;;;0.80;0.80;;;;;;;38.90;19.24;99373.69;5036049;28;20063;-80
2021/08/20 09:02:20;;;;;;;0.30;0.30;;;;;;;38.41;19.88;99379.06;5052232;28;20365;-82
2021/08/20 09:05:00;;;;;;;0.65;0.65;;;;;;;38.23;19.62;99372.69;5097760;27;20395;-79
2021/08/20 09:07:39;;;;;;;0.60;0.60;;;;;;;38.21;19.65;99374.19;5080785;28;20386;-77
2021/08/20 09:10:23;;;;;;;0.80;0.80;;;;;;;39.17;18.92;99371.44;5091281;27;20758;-78
2021/08/20 09:13:03;;;;;;;0.73;0.73;;;;;;;38.63;19.39;99375.06;5073226;27;21242;-82
2021/08/20 09:15:41;;;;;;;0.80;0.80;;;;;;;39.29;18.57;99368.66;5093592;27;20385;-80
2021/08/20 09:18:21;;;;;;;0.88;0.88;;;;;;;39.66;18.00;99371.56;5073326;28;20404;-80
2021/08/20 09:20:59;;;;;;;0.70;0.70;;;;;;;39.89;17.72;99369.94;5041691;28;20399;-80
2021/08/20 09:23:38;;;;;;;0.80;0.80;;;;;;;40.05;17.75;99367.22;5096993;27;20673;-83
2021/08/20 09:26:23;;;;;;;0.70;0.70;;;;;;;40.13;18.10;99379.63;5120869;27;20120;-81
2021/08/20 09:29:12;;;;;;;0.68;0.68;;;;;;;40.74;17.47;99388.03;5148985;27;20399;-82
2021/08/20 09:31:51;;;;;;;0.63;0.63;;;;;;;40.22;17.90;99388.81;5096992;27;20133;-80
2021/08/20 09:34:31;;;;;;;0.70;0.70;;;;;;;40.22;17.50;99400.16;5087367;27;20491;-79
2021/08/20 09:37:13;;;;;;;0.60;0.60;;;;;;;39.25;18.11;99385.50;5110952;27;20771;-80
2021/08/20 09:39:57;;;;;;;0.70;0.70;;;;;;;39.77;17.40;99390.56;5071161;27;20379;-84
2021/08/20 09:42:36;;;;;;;0.70;0.70;;;;;;;39.74;17.30;99381.97;5098772;27;20425;-81
2021/08/20 09:45:22;;;;;;;0.70;0.70;;;;;;;40.03;17.48;99376.06;5122139;27;20116;-83
2021/08/20 09:48:00;;;;;;;0.80;0.80;;;;;;;40.18;17.35;99388.69;5089757;27;20949;-82
2021/08/20 09:50:42;;;;;;;0.60;0.60;;;;;;;39.43;17.37;99383.31;5096547;27;20906;-80
2021/08/20 09:53:22;;;;;;;0.70;0.70;;;;;;;39.85;17.24;99383.13;5094067;27;20427;-81
2021/08/20 09:56:05;;;;;;;0.80;0.80;;;;;;;39.55;17.62;99372.00;5044412;28;20392;-83
2021/08/20 09:58:45;;;;;;;0.60;0.60;;;;;;;40.20;17.40;99385.53;5064537;27;20417;-80
2021/08/20 10:01:30;;;;;;;0.70;0.70;;;;;;;40.04;17.47;99379.72;5101729;27;20668;-80
2021/08/20 10:04:10;;;;;;;0.60;0.60;;;;;;;39.74;17.47;99379.13;5090294;27;21465;-80
2021/08/20 10:06:48;;;;;;;0.60;0.60;;;;;;;39.91;17.88;99373.25;5066454;28;20411;-82
2021/08/20 10:09:29;;;;;;;0.60;0.60;;;;;;;39.66;17.63;99372.38;5074814;28;20410;-79
2021/08/20 10:12:08;;;;;;;0.70;0.70;;;;;;;39.62;17.33;99367.78;5054542;27;21069;-82
2021/08/20 10:14:46;;;;;;;0.70;0.70;;;;;;;40.00;16.75;99365.47;5049599;28;20788;-79
2021/08/20 10:17:14;;;;;;;0.60;0.60;;;;;;;40.12;17.13;99372.28;5051179;28;20097;-81
2021/08/20 10:19:41;;;;;;;0.70;0.70;;;;;;;39.12;18.23;99358.31;5052877;28;21172;-83
2021/08/20 10:22:08;;;;;;;0.60;0.60;;;;;;;39.35;16.84;99355.97;5057173;28;20045;-82
2021/08/20 10:24:35;;;;;;;0.57;0.57;;;;;;;39.65;17.66;99344.44;5025640;28;20390;-83
2021/08/20 10:27:10;;;;;;;0.60;0.60;;;;;;;39.99;17.53;99346.81;5025048;28;20542;-81
2021/08/20 10:29:47;;;;;;;0.60;0.60;;;;;;;40.11;17.29;99347.97;5062294;28;20041;-77
2021/08/20 10:32:15;;;;;;;0.50;0.50;;;;;;;40.23;17.22;99350.81;5058508;28;20091;-79
2021/08/20 10:34:42;;;;;;;0.60;0.60;;;;;;;40.38;17.11;99344.41;5062570;28;20052;-78
2021/08/20 10:37:23;;;;;;;0.60;0.60;;;;;;;39.99;17.60;99346.81;5060682;28;20486;-81
2021/08/20 10:39:51;;;;;;;0.60;0.60;;;;;;;39.82;18.42;99340.56;5056236;28;20045;-81
2021/08/20 10:42:22;;;;;;;0.60;0.60;;;;;;;40.15;18.37;99340.44;5058126;28;20600;-77
2021/08/20 10:45:13;;;;;;;0.57;0.57;;;;;;;39.67;17.53;99351.38;5076758;27;20421;-81
2021/08/20 10:47:45;;;;;;;0.60;0.60;;;;;;;39.89;17.69;99335.13;5073907;28;20032;-81
2021/08/20 10:50:22;;;;;;;0.52;0.52;;;;;;;39.61;18.02;99347.16;5083159;27;20398;-81
2021/08/20 10:53:19;;;;;;;0.50;0.50;;;;;;;39.86;17.74;99359.34;5093493;27;20401;-81
2021/08/20 10:56:32;;;;;;;0.60;0.60;;;;;;;40.10;17.19;99354.81;5046415;27;20396;-79
2021/08/20 10:59:36;;;;;;;0.50;0.50;;;;;;;40.20;17.20;99357.19;5050129;27;20392;-79
2021/08/20 11:02:20;;;;;;;0.60;0.60;;;;;;;39.78;16.93;99352.63;5093669;27;20403;-78
2021/08/20 11:04:59;;;;;;;0.60;0.60;;;;;;;39.77;16.54;99350.13;5084606;27;20773;-81
2021/08/20 11:07:36;;;;;;;0.50;0.50;;;;;;;40.21;16.02;99347.50;5071073;27;20395;-80
2021/08/20 11:10:15;;;;;;;0.60;0.60;;;;;;;40.05;16.86;99338.91;5087983;27;20388;-79
2021/08/20 11:12:53;;;;;;;0.30;0.30;;;;;;;39.06;16.68;99339.94;5088100;27;20384;-78
2021/08/20 11:15:31;;;;;;;0.30;0.30;;;;;;;38.54;17.92;99344.09;5098122;27;20397;-77
2021/08/20 11:18:08;;;;;;;0.30;0.30;;;;;;;38.69;17.80;99330.47;5069240;27;20395;-81
2021/08/20 11:20:49;;;;;;;0.30;0.30;;;;;;;37.99;18.55;99328.16;5087157;27;20390;-77
2021/08/20 11:23:34;;;;;;;0.20;0.20;;;;;;;37.49;19.28;99328.91;5038282;28;20044;-80
2021/08/20 11:26:28;;;;;;;0.40;0.40;;;;;;;37.32;19.42;99337.41;5082829;27;20397;-79
2021/08/20 11:29:09;;;;;;;0.40;0.40;;;;;;;37.42;19.45;99337.06;5101447;27;20404;-78
2021/08/20 11:31:46;;;;;;;0.30;0.30;;;;;;;37.12;20.47;99322.88;5101187;27;20473;-76
2021/08/20 11:34:12;;;;;;;0.60;0.60;;;;;;;37.77;18.43;99331.25;5087836;28;20505;-78
2021/08/20 11:36:43;;;;;;;0.20;0.20;;;;;;;37.76;19.20;99333.25;5085490;28;20163;-79
2021/08/20 11:39:13;;;;;;;0.20;0.20;;;;;;;37.49;19.45;99331.72;5069764;28;20507;-79
2021/08/20 11:41:44;;;;;;;0.20;0.20;;;;;;;37.43;20.47;99321.78;5062394;28;20048;-81
2021/08/20 11:44:12;;;;;;;0.20;0.20;;;;;;;36.64;20.18;99318.31;5071948;28;20043;-82
2021/08/20 11:46:46;;;;;;;0.20;0.20;;;;;;;35.74;21.77;99318.81;5063788;28;20045;-82
2021/08/20 11:49:23;;;;;;;0.20;0.20;;;;;;;35.59;21.73;99322.09;5081481;28;20028;-82
2021/08/20 11:51:50;;;;;;;0.30;0.30;;;;;;;36.17;20.90;99325.72;5055582;28;20044;-79
2021/08/20 11:54:17;;;;;;;0.40;0.40;;;;;;;36.33;20.42;99328.88;5072156;28;20798;-82
2021/08/20 11:56:53;;;;;;;0.20;0.20;;;;;;;36.10;20.18;99331.84;5071289;28;20036;-79
2021/08/20 11:59:19;;;;;;;0.20;0.20;;;;;;;35.66;21.33;99321.63;5073982;28;20032;-84
2021/08/20 12:01:45;;;;;;;0.30;0.30;;;;;;;35.41;21.56;99318.34;5075602;28;20044;-80
2021/08/20 12:04:11;;;;;;;0.20;0.20;;;;;;;35.04;22.18;99322.47;5072664;28;20036;-80
2021/08/20 12:06:40;;;;;;;0.40;0.40;;;;;;;35.00;22.56;99327.06;5062664;28;20044;-81
2021/08/20 12:09:12;;;;;;;0.20;0.20;;;;;;;35.01;22.79;99320.28;5075269;28;20037;-80
2021/08/20 12:11:40;;;;;;;0.30;0.30;;;;;;;35.24;22.81;99324.69;5045305;28;20048;-81
2021/08/20 12:14:06;;;;;;;0.40;0.40;;;;;;;35.49;22.28;99327.97;5036808;28;20398;-81
2021/08/20 12:16:48;;;;;;;0.40;0.40;;;;;;;36.00;21.72;99326.53;5067076;28;20048;-81
2021/08/20 12:19:41;;;;;;;0.30;0.30;;;;;;;35.80;22.04;99333.56;5069692;28;20470;-80
2021/08/20 12:22:12;;;;;;;0.10;0.10;;;;;;;34.65;23.37;99320.34;5070015;28;20056;-81
2021/08/20 12:24:48;;;;;;;0.30;0.30;;;;;;;34.29;23.41;99319.19;5056033;28;20066;-80
2021/08/20 12:27:20;;;;;;;0.30;0.30;;;;;;;34.27;23.86;99321.50;5069940;28;20036;-82